sensor_id;sensor_type;location;lat;lon;timestamp;P1;durP1;ratioP1;P2;durP2;ratioP2
74972;SDS011;63529;56.320;43.990;2022-11-21T00:00:15;14.25;;;5.25;;
74972;SDS011;63529;56.320;43.990;2022-11-21T00:02:41;17.95;;;6.15;;
74972;SDS011;63529;56.320;43.990;2022-11-21T00:05:07;15.88;;;5.03;;
74972;SDS011;63529;56.320;43.990;2022-11-21T00:07:33;16.45;;;5.18;;
74972;SDS011;63529;56.320;43.990;2022-11-21T00:09:59;16.45;;;5.38;;
74972;SDS011;63529;56.320;43.990;2022-11-21T00:12:25;15.00;;;5.47;;
74972;SDS011;63529;56.320;43.990;2022-11-21T00:14:51;13.57;;;5.35;;
74972;SDS011;63529;56.320;43.990;2022-11-21T00:17:17;20.27;;;6.18;;
74972;SDS011;63529;56.320;43.990;2022-11-21T00:19:43;17.25;;;6.20;;
74972;SDS011;63529;56.320;43.990;2022-11-21T00:22:09;17.13;;;6.18;;
74972;SDS011;63529;56.320;43.990;2022-11-21T00:24:35;15.63;;;5.28;;
74972;SDS011;63529;56.320;43.990;2022-11-21T00:27:01;15.10;;;5.20;;
74972;SDS011;63529;56.320;43.990;2022-11-21T00:29:27;18.63;;;6.38;;
74972;SDS011;63529;56.320;43.990;2022-11-21T00:31:53;18.85;;;5.07;;
74972;SDS011;63529;56.320;43.990;2022-11-21T00:34:19;15.10;;;5.32;;
74972;SDS011;63529;56.320;43.990;2022-11-21T00:36:45;14.48;;;4.93;;
74972;SDS011;63529;56.320;43.990;2022-11-21T00:39:11;20.75;;;5.90;;
74972;SDS011;63529;56.320;43.990;2022-11-21T00:41:37;19.52;;;5.93;;
74972;SDS011;63529;56.320;43.990;2022-11-21T00:44:03;17.70;;;5.53;;
74972;SDS011;63529;56.320;43.990;2022-11-21T00:46:29;16.60;;;6.20;;
74972;SDS011;63529;56.320;43.990;2022-11-21T00:48:55;18.95;;;5.97;;
74972;SDS011;63529;56.320;43.990;2022-11-21T00:51:21;17.13;;;5.78;;
74972;SDS011;63529;56.320;43.990;2022-11-21T00:53:47;19.38;;;6.13;;
74972;SDS011;63529;56.320;43.990;2022-11-21T00:56:12;17.25;;;5.93;;
74972;SDS011;63529;56.320;43.990;2022-11-21T00:58:38;16.92;;;5.80;;
74972;SDS011;63529;56.320;43.990;2022-11-21T01:01:05;19.77;;;5.88;;
74972;SDS011;63529;56.320;43.990;2022-11-21T01:03:34;17.00;;;6.20;;
74972;SDS011;63529;56.320;43.990;2022-11-21T01:06:01;19.73;;;6.55;;
74972;SDS011;63529;56.320;43.990;2022-11-21T01:08:29;17.98;;;5.97;;
74972;SDS011;63529;56.320;43.990;2022-11-21T01:10:55;17.95;;;5.80;;
74972;SDS011;63529;56.320;43.990;2022-11-21T01:13:21;20.30;;;6.82;;
74972;SDS011;63529;56.320;43.990;2022-11-21T01:15:47;18.92;;;6.50;;
74972;SDS011;63529;56.320;43.990;2022-11-21T01:18:13;15.75;;;5.95;;
74972;SDS011;63529;56.320;43.990;2022-11-21T01:20:39;20.33;;;6.75;;
74972;SDS011;63529;56.320;43.990;2022-11-21T01:23:05;21.30;;;6.55;;
74972;SDS011;63529;56.320;43.990;2022-11-21T01:25:34;18.60;;;6.72;;
74972;SDS011;63529;56.320;43.990;2022-11-21T01:28:00;18.30;;;5.90;;
74972;SDS011;63529;56.320;43.990;2022-11-21T01:30:26;23.60;;;6.05;;
74972;SDS011;63529;56.320;43.990;2022-11-21T01:32:52;17.73;;;5.65;;
74972;SDS011;63529;56.320;43.990;2022-11-21T01:35:18;16.80;;;6.00;;
74972;SDS011;63529;56.320;43.990;2022-11-21T01:37:47;18.27;;;6.05;;
74972;SDS011;63529;56.320;43.990;2022-11-21T01:40:14;15.55;;;6.15;;
74972;SDS011;63529;56.320;43.990;2022-11-21T01:42:54;19.00;;;6.20;;
74972;SDS011;63529;56.320;43.990;2022-11-21T01:53:49;19.05;;;6.20;;
74972;SDS011;63529;56.320;43.990;2022-11-21T01:56:19;18.92;;;6.93;;
74972;SDS011;63529;56.320;43.990;2022-11-21T01:58:46;18.58;;;6.40;;
74972;SDS011;63529;56.320;43.990;2022-11-21T02:01:15;16.30;;;5.90;;
74972;SDS011;63529;56.320;43.990;2022-11-21T02:03:41;15.80;;;5.53;;
74972;SDS011;63529;56.320;43.990;2022-11-21T02:06:10;20.55;;;5.40;;
74972;SDS011;63529;56.320;43.990;2022-11-21T02:08:37;17.77;;;5.20;;
74972;SDS011;63529;56.320;43.990;2022-11-21T02:13:33;21.30;;;6.63;;
74972;SDS011;63529;56.320;43.990;2022-11-21T02:15:59;18.08;;;6.68;;
74972;SDS011;63529;56.320;43.990;2022-11-21T02:18:26;20.67;;;6.40;;
74972;SDS011;63529;56.320;43.990;2022-11-21T02:20:52;18.85;;;6.07;;
74972;SDS011;63529;56.320;43.990;2022-11-21T02:23:29;20.27;;;6.18;;
74972;SDS011;63529;56.320;43.990;2022-11-21T02:25:58;18.55;;;6.43;;
74972;SDS011;63529;56.320;43.990;2022-11-21T02:28:24;16.98;;;6.32;;
74972;SDS011;63529;56.320;43.990;2022-11-21T02:30:51;15.88;;;5.80;;
74972;SDS011;63529;56.320;43.990;2022-11-21T02:33:17;12.98;;;4.70;;
74972;SDS011;63529;56.320;43.990;2022-11-21T02:35:43;19.60;;;5.95;;
74972;SDS011;63529;56.320;43.990;2022-11-21T02:38:19;17.08;;;6.38;;
74972;SDS011;63529;56.320;43.990;2022-11-21T02:43:50;20.70;;;6.50;;
74972;SDS011;63529;56.320;43.990;2022-11-21T02:46:20;17.27;;;5.90;;
74972;SDS011;63529;56.320;43.990;2022-11-21T02:48:46;18.48;;;5.80;;
74972;SDS011;63529;56.320;43.990;2022-11-21T02:51:11;16.25;;;5.63;;
74972;SDS011;63529;56.320;43.990;2022-11-21T02:53:37;15.60;;;5.57;;
74972;SDS011;63529;56.320;43.990;2022-11-21T02:56:03;18.00;;;5.35;;
74972;SDS011;63529;56.320;43.990;2022-11-21T02:58:29;14.13;;;6.20;;
74972;SDS011;63529;56.320;43.990;2022-11-21T03:00:55;18.90;;;4.88;;
74972;SDS011;63529;56.320;43.990;2022-11-21T03:03:21;14.32;;;5.30;;
74972;SDS011;63529;56.320;43.990;2022-11-21T03:05:47;19.23;;;5.22;;
74972;SDS011;63529;56.320;43.990;2022-11-21T03:08:13;15.45;;;5.22;;
74972;SDS011;63529;56.320;43.990;2022-11-21T03:10:39;17.98;;;5.22;;
74972;SDS011;63529;56.320;43.990;2022-11-21T03:13:05;14.50;;;5.68;;
74972;SDS011;63529;56.320;43.990;2022-11-21T03:15:32;17.85;;;6.05;;
74972;SDS011;63529;56.320;43.990;2022-11-21T03:17:59;15.65;;;5.85;;
74972;SDS011;63529;56.320;43.990;2022-11-21T03:20:27;17.70;;;4.95;;
74972;SDS011;63529;56.320;43.990;2022-11-21T03:22:58;17.75;;;6.00;;
74972;SDS011;63529;56.320;43.990;2022-11-21T03:25:25;21.52;;;5.65;;
74972;SDS011;63529;56.320;43.990;2022-11-21T03:27:51;15.77;;;5.32;;
74972;SDS011;63529;56.320;43.990;2022-11-21T03:30:22;14.55;;;5.07;;
74972;SDS011;63529;56.320;43.990;2022-11-21T03:32:49;14.15;;;5.05;;
74972;SDS011;63529;56.320;43.990;2022-11-21T03:35:16;13.63;;;5.30;;
74972;SDS011;63529;56.320;43.990;2022-11-21T03:37:42;17.60;;;6.03;;
74972;SDS011;63529;56.320;43.990;2022-11-21T03:40:08;9.75;;;3.03;;
74972;SDS011;63529;56.320;43.990;2022-11-21T03:42:34;19.77;;;5.68;;
74972;SDS011;63529;56.320;43.990;2022-11-21T03:45:00;16.58;;;5.28;;
74972;SDS011;63529;56.320;43.990;2022-11-21T03:47:29;17.48;;;5.97;;
74972;SDS011;63529;56.320;43.990;2022-11-21T03:49:55;17.30;;;5.47;;
74972;SDS011;63529;56.320;43.990;2022-11-21T03:52:21;18.05;;;5.75;;
74972;SDS011;63529;56.320;43.990;2022-11-21T03:54:47;15.63;;;5.63;;
74972;SDS011;63529;56.320;43.990;2022-11-21T03:57:12;15.57;;;5.50;;
74972;SDS011;63529;56.320;43.990;2022-11-21T03:59:39;14.07;;;5.07;;
74972;SDS011;63529;56.320;43.990;2022-11-21T04:02:05;15.90;;;5.30;;
74972;SDS011;63529;56.320;43.990;2022-11-21T04:04:31;17.30;;;5.50;;
74972;SDS011;63529;56.320;43.990;2022-11-21T04:06:57;20.63;;;5.85;;
74972;SDS011;63529;56.320;43.990;2022-11-21T04:09:23;16.23;;;5.43;;
74972;SDS011;63529;56.320;43.990;2022-11-21T04:11:48;16.00;;;5.72;;
74972;SDS011;63529;56.320;43.990;2022-11-21T04:14:14;14.90;;;5.07;;
74972;SDS011;63529;56.320;43.990;2022-11-21T04:16:41;18.58;;;6.20;;
74972;SDS011;63529;56.320;43.990;2022-11-21T04:19:07;14.35;;;4.35;;
74972;SDS011;63529;56.320;43.990;2022-11-21T04:21:33;20.13;;;6.25;;
74972;SDS011;63529;56.320;43.990;2022-11-21T04:23:59;15.35;;;4.70;;
74972;SDS011;63529;56.320;43.990;2022-11-21T04:26:24;13.77;;;4.88;;
74972;SDS011;63529;56.320;43.990;2022-11-21T04:28:50;19.08;;;6.15;;
74972;SDS011;63529;56.320;43.990;2022-11-21T04:31:16;17.27;;;5.45;;
74972;SDS011;63529;56.320;43.990;2022-11-21T04:33:42;17.83;;;6.00;;
74972;SDS011;63529;56.320;43.990;2022-11-21T04:36:08;17.10;;;5.55;;
74972;SDS011;63529;56.320;43.990;2022-11-21T04:38:34;19.30;;;5.90;;
74972;SDS011;63529;56.320;43.990;2022-11-21T04:41:01;16.80;;;4.78;;
74972;SDS011;63529;56.320;43.990;2022-11-21T04:43:26;10.05;;;3.55;;
74972;SDS011;63529;56.320;43.990;2022-11-21T04:45:52;14.13;;;5.07;;
74972;SDS011;63529;56.320;43.990;2022-11-21T04:48:18;15.93;;;5.82;;
74972;SDS011;63529;56.320;43.990;2022-11-21T04:50:45;16.33;;;5.03;;
74972;SDS011;63529;56.320;43.990;2022-11-21T04:53:11;18.10;;;5.47;;
74972;SDS011;63529;56.320;43.990;2022-11-21T04:55:37;14.30;;;5.05;;
74972;SDS011;63529;56.320;43.990;2022-11-21T04:58:03;16.98;;;5.25;;
74972;SDS011;63529;56.320;43.990;2022-11-21T05:00:29;19.00;;;6.20;;
74972;SDS011;63529;56.320;43.990;2022-11-21T05:02:59;20.42;;;6.63;;
74972;SDS011;63529;56.320;43.990;2022-11-21T05:05:27;16.27;;;5.90;;
74972;SDS011;63529;56.320;43.990;2022-11-21T05:07:53;20.60;;;6.30;;
74972;SDS011;63529;56.320;43.990;2022-11-21T05:10:18;17.02;;;5.93;;
74972;SDS011;63529;56.320;43.990;2022-11-21T05:12:44;16.58;;;5.45;;
74972;SDS011;63529;56.320;43.990;2022-11-21T05:15:28;13.90;;;4.97;;
74972;SDS011;63529;56.320;43.990;2022-11-21T05:17:57;16.33;;;5.68;;
74972;SDS011;63529;56.320;43.990;2022-11-21T05:20:24;13.77;;;4.80;;
74972;SDS011;63529;56.320;43.990;2022-11-21T05:22:50;16.63;;;5.85;;
74972;SDS011;63529;56.320;43.990;2022-11-21T05:25:16;17.50;;;6.20;;
74972;SDS011;63529;56.320;43.990;2022-11-21T05:27:43;17.83;;;5.75;;
74972;SDS011;63529;56.320;43.990;2022-11-21T05:30:09;19.30;;;5.68;;
74972;SDS011;63529;56.320;43.990;2022-11-21T05:32:36;16.63;;;6.45;;
74972;SDS011;63529;56.320;43.990;2022-11-21T05:35:02;17.10;;;5.72;;
74972;SDS011;63529;56.320;43.990;2022-11-21T05:37:28;16.02;;;5.13;;
74972;SDS011;63529;56.320;43.990;2022-11-21T05:39:54;9.07;;;4.00;;
74972;SDS011;63529;56.320;43.990;2022-11-21T05:42:20;19.08;;;5.85;;
74972;SDS011;63529;56.320;43.990;2022-11-21T05:45:06;12.55;;;5.03;;
74972;SDS011;63529;56.320;43.990;2022-11-21T05:47:32;13.25;;;4.90;;
74972;SDS011;63529;56.320;43.990;2022-11-21T05:49:58;14.07;;;5.60;;
74972;SDS011;63529;56.320;43.990;2022-11-21T05:52:24;14.55;;;5.82;;
74972;SDS011;63529;56.320;43.990;2022-11-21T05:54:52;16.73;;;6.45;;
74972;SDS011;63529;56.320;43.990;2022-11-21T05:57:18;11.48;;;3.80;;
74972;SDS011;63529;56.320;43.990;2022-11-21T05:59:43;17.52;;;6.22;;
74972;SDS011;63529;56.320;43.990;2022-11-21T06:02:09;17.42;;;5.95;;
74972;SDS011;63529;56.320;43.990;2022-11-21T06:04:54;13.93;;;5.10;;
74972;SDS011;63529;56.320;43.990;2022-11-21T06:07:21;19.65;;;6.03;;
74972;SDS011;63529;56.320;43.990;2022-11-21T06:09:47;14.88;;;5.78;;
74972;SDS011;63529;56.320;43.990;2022-11-21T06:12:13;17.42;;;5.22;;
74972;SDS011;63529;56.320;43.990;2022-11-21T06:14:39;22.15;;;6.53;;
74972;SDS011;63529;56.320;43.990;2022-11-21T06:17:05;15.60;;;5.57;;
74972;SDS011;63529;56.320;43.990;2022-11-21T06:19:32;10.60;;;4.35;;
74972;SDS011;63529;56.320;43.990;2022-11-21T06:21:58;21.73;;;6.50;;
74972;SDS011;63529;56.320;43.990;2022-11-21T06:24:24;18.88;;;5.50;;
74972;SDS011;63529;56.320;43.990;2022-11-21T06:26:50;19.08;;;6.70;;
74972;SDS011;63529;56.320;43.990;2022-11-21T06:29:16;17.77;;;5.75;;
74972;SDS011;63529;56.320;43.990;2022-11-21T06:31:42;17.13;;;5.85;;
74972;SDS011;63529;56.320;43.990;2022-11-21T06:34:08;15.60;;;5.95;;
74972;SDS011;63529;56.320;43.990;2022-11-21T06:36:34;17.23;;;5.60;;
74972;SDS011;63529;56.320;43.990;2022-11-21T06:39:00;21.83;;;6.03;;
74972;SDS011;63529;56.320;43.990;2022-11-21T06:41:26;19.42;;;5.70;;
74972;SDS011;63529;56.320;43.990;2022-11-21T06:43:59;9.70;;;3.33;;
74972;SDS011;63529;56.320;43.990;2022-11-21T06:46:28;12.60;;;4.35;;
74972;SDS011;63529;56.320;43.990;2022-11-21T06:48:54;12.95;;;4.47;;
74972;SDS011;63529;56.320;43.990;2022-11-21T06:51:21;19.10;;;6.47;;
74972;SDS011;63529;56.320;43.990;2022-11-21T06:53:56;14.18;;;5.47;;
74972;SDS011;63529;56.320;43.990;2022-11-21T06:56:24;15.75;;;4.97;;
74972;SDS011;63529;56.320;43.990;2022-11-21T06:58:52;14.90;;;5.63;;
74972;SDS011;63529;56.320;43.990;2022-11-21T07:01:18;17.55;;;5.80;;
74972;SDS011;63529;56.320;43.990;2022-11-21T07:03:44;16.17;;;5.05;;
74972;SDS011;63529;56.320;43.990;2022-11-21T07:06:10;18.75;;;5.95;;
74972;SDS011;63529;56.320;43.990;2022-11-21T07:08:36;15.25;;;5.72;;
74972;SDS011;63529;56.320;43.990;2022-11-21T07:11:07;11.07;;;4.45;;
74972;SDS011;63529;56.320;43.990;2022-11-21T07:13:37;14.77;;;5.35;;
74972;SDS011;63529;56.320;43.990;2022-11-21T07:16:07;13.52;;;4.68;;
74972;SDS011;63529;56.320;43.990;2022-11-21T07:18:35;15.52;;;5.78;;
74972;SDS011;63529;56.320;43.990;2022-11-21T07:21:05;17.02;;;6.70;;
74972;SDS011;63529;56.320;43.990;2022-11-21T07:23:32;20.25;;;6.78;;
74972;SDS011;63529;56.320;43.990;2022-11-21T07:25:59;21.08;;;7.18;;
74972;SDS011;63529;56.320;43.990;2022-11-21T07:28:27;21.20;;;7.38;;
74972;SDS011;63529;56.320;43.990;2022-11-21T07:33:23;20.85;;;6.15;;
74972;SDS011;63529;56.320;43.990;2022-11-21T07:35:49;19.30;;;6.18;;
74972;SDS011;63529;56.320;43.990;2022-11-21T07:38:15;21.52;;;7.28;;
74972;SDS011;63529;56.320;43.990;2022-11-21T07:40:41;22.55;;;7.57;;
74972;SDS011;63529;56.320;43.990;2022-11-21T07:43:08;24.38;;;7.07;;
74972;SDS011;63529;56.320;43.990;2022-11-21T07:45:35;18.30;;;6.05;;
74972;SDS011;63529;56.320;43.990;2022-11-21T07:48:03;23.02;;;7.78;;
74972;SDS011;63529;56.320;43.990;2022-11-21T07:50:31;22.83;;;7.20;;
74972;SDS011;63529;56.320;43.990;2022-11-21T07:52:58;22.52;;;7.80;;
74972;SDS011;63529;56.320;43.990;2022-11-21T07:55:30;23.67;;;8.38;;
74972;SDS011;63529;56.320;43.990;2022-11-21T07:57:58;23.73;;;7.90;;
74972;SDS011;63529;56.320;43.990;2022-11-21T08:00:26;19.00;;;6.85;;
74972;SDS011;63529;56.320;43.990;2022-11-21T08:02:53;18.38;;;6.40;;
74972;SDS011;63529;56.320;43.990;2022-11-21T08:05:19;21.77;;;7.15;;
74972;SDS011;63529;56.320;43.990;2022-11-21T08:07:46;24.90;;;7.70;;
74972;SDS011;63529;56.320;43.990;2022-11-21T08:10:12;22.52;;;7.72;;
74972;SDS011;63529;56.320;43.990;2022-11-21T08:12:39;18.55;;;7.10;;
74972;SDS011;63529;56.320;43.990;2022-11-21T08:15:06;23.05;;;7.85;;
74972;SDS011;63529;56.320;43.990;2022-11-21T08:17:33;22.65;;;8.23;;
74972;SDS011;63529;56.320;43.990;2022-11-21T08:19:59;23.38;;;6.82;;
74972;SDS011;63529;56.320;43.990;2022-11-21T08:22:26;19.40;;;6.32;;
74972;SDS011;63529;56.320;43.990;2022-11-21T08:24:53;23.25;;;7.90;;
74972;SDS011;63529;56.320;43.990;2022-11-21T08:27:20;24.05;;;7.38;;
74972;SDS011;63529;56.320;43.990;2022-11-21T08:29:49;19.95;;;7.72;;
74972;SDS011;63529;56.320;43.990;2022-11-21T08:32:17;24.52;;;7.88;;
74972;SDS011;63529;56.320;43.990;2022-11-21T08:34:43;23.38;;;7.78;;
74972;SDS011;63529;56.320;43.990;2022-11-21T08:37:09;21.92;;;8.10;;
74972;SDS011;63529;56.320;43.990;2022-11-21T08:39:35;19.73;;;7.13;;
74972;SDS011;63529;56.320;43.990;2022-11-21T08:42:01;22.80;;;7.20;;
74972;SDS011;63529;56.320;43.990;2022-11-21T08:44:28;20.33;;;7.57;;
74972;SDS011;63529;56.320;43.990;2022-11-21T08:46:57;23.00;;;7.18;;
74972;SDS011;63529;56.320;43.990;2022-11-21T08:49:23;18.20;;;6.43;;
74972;SDS011;63529;56.320;43.990;2022-11-21T08:51:49;26.65;;;8.90;;
74972;SDS011;63529;56.320;43.990;2022-11-21T08:54:20;26.88;;;8.45;;
74972;SDS011;63529;56.320;43.990;2022-11-21T08:56:47;19.77;;;7.30;;
74972;SDS011;63529;56.320;43.990;2022-11-21T08:59:14;25.52;;;7.75;;
74972;SDS011;63529;56.320;43.990;2022-11-21T09:01:40;25.48;;;8.30;;
74972;SDS011;63529;56.320;43.990;2022-11-21T09:04:07;22.98;;;8.57;;
74972;SDS011;63529;56.320;43.990;2022-11-21T09:06:33;26.80;;;8.52;;
74972;SDS011;63529;56.320;43.990;2022-11-21T09:08:59;26.77;;;8.32;;
74972;SDS011;63529;56.320;43.990;2022-11-21T09:11:26;29.13;;;8.40;;
74972;SDS011;63529;56.320;43.990;2022-11-21T09:13:53;28.75;;;8.40;;
74972;SDS011;63529;56.320;43.990;2022-11-21T09:16:37;28.83;;;9.45;;
74972;SDS011;63529;56.320;43.990;2022-11-21T09:19:22;31.45;;;9.60;;
74972;SDS011;63529;56.320;43.990;2022-11-21T09:21:49;26.25;;;8.20;;
74972;SDS011;63529;56.320;43.990;2022-11-21T09:24:16;30.15;;;9.05;;
74972;SDS011;63529;56.320;43.990;2022-11-21T09:26:42;28.33;;;9.80;;
74972;SDS011;63529;56.320;43.990;2022-11-21T09:29:09;27.33;;;9.07;;
74972;SDS011;63529;56.320;43.990;2022-11-21T09:31:38;25.65;;;7.95;;
74972;SDS011;63529;56.320;43.990;2022-11-21T09:34:04;31.48;;;9.90;;
74972;SDS011;63529;56.320;43.990;2022-11-21T09:36:30;27.10;;;8.82;;
74972;SDS011;63529;56.320;43.990;2022-11-21T09:38:56;36.75;;;9.32;;
74972;SDS011;63529;56.320;43.990;2022-11-21T09:44:30;26.23;;;8.60;;
74972;SDS011;63529;56.320;43.990;2022-11-21T09:47:26;28.25;;;9.05;;
74972;SDS011;63529;56.320;43.990;2022-11-21T09:49:56;27.10;;;8.70;;
74972;SDS011;63529;56.320;43.990;2022-11-21T09:52:43;27.42;;;9.05;;
74972;SDS011;63529;56.320;43.990;2022-11-21T09:58:02;38.88;;;13.20;;
74972;SDS011;63529;56.320;43.990;2022-11-21T10:00:30;30.02;;;8.77;;
74972;SDS011;63529;56.320;43.990;2022-11-21T10:02:56;20.40;;;8.10;;
74972;SDS011;63529;56.320;43.990;2022-11-21T10:05:44;23.73;;;8.40;;
74972;SDS011;63529;56.320;43.990;2022-11-21T10:11:21;29.23;;;9.10;;
74972;SDS011;63529;56.320;43.990;2022-11-21T10:14:21;27.33;;;8.23;;
74972;SDS011;63529;56.320;43.990;2022-11-21T10:25:14;26.08;;;8.18;;
74972;SDS011;63529;56.320;43.990;2022-11-21T10:30:52;24.15;;;7.57;;
74972;SDS011;63529;56.320;43.990;2022-11-21T10:33:30;25.23;;;7.50;;
74972;SDS011;63529;56.320;43.990;2022-11-21T10:35:59;30.48;;;8.18;;
74972;SDS011;63529;56.320;43.990;2022-11-21T10:38:33;33.55;;;9.15;;
74972;SDS011;63529;56.320;43.990;2022-11-21T10:44:07;27.65;;;8.55;;
74972;SDS011;63529;56.320;43.990;2022-11-21T10:47:00;25.85;;;9.07;;
74972;SDS011;63529;56.320;43.990;2022-11-21T10:49:29;25.58;;;8.90;;
74972;SDS011;63529;56.320;43.990;2022-11-21T10:52:06;31.08;;;8.90;;
74972;SDS011;63529;56.320;43.990;2022-11-21T10:57:30;25.90;;;9.23;;
74972;SDS011;63529;56.320;43.990;2022-11-21T11:00:21;29.75;;;8.18;;
74972;SDS011;63529;56.320;43.990;2022-11-21T11:10:43;25.25;;;8.27;;
74972;SDS011;63529;56.320;43.990;2022-11-21T11:13:29;27.27;;;8.80;;
74972;SDS011;63529;56.320;43.990;2022-11-21T11:16:04;28.42;;;9.38;;
74972;SDS011;63529;56.320;43.990;2022-11-21T11:18:31;23.75;;;8.48;;
74972;SDS011;63529;56.320;43.990;2022-11-21T11:23:49;22.33;;;7.38;;
74972;SDS011;63529;56.320;43.990;2022-11-21T11:26:18;23.67;;;7.70;;
74972;SDS011;63529;56.320;43.990;2022-11-21T11:28:49;25.65;;;7.82;;
74972;SDS011;63529;56.320;43.990;2022-11-21T11:31:16;29.52;;;9.15;;
74972;SDS011;63529;56.320;43.990;2022-11-21T11:33:52;28.92;;;8.57;;
74972;SDS011;63529;56.320;43.990;2022-11-21T11:38:59;24.15;;;7.68;;
74972;SDS011;63529;56.320;43.990;2022-11-21T11:47:52;25.17;;;7.57;;
74972;SDS011;63529;56.320;43.990;2022-11-21T11:50:24;32.17;;;8.80;;
74972;SDS011;63529;56.320;43.990;2022-11-21T11:53:14;26.13;;;8.18;;
74972;SDS011;63529;56.320;43.990;2022-11-21T12:06:03;21.40;;;7.63;;
74972;SDS011;63529;56.320;43.990;2022-11-21T12:08:43;29.73;;;8.70;;
74972;SDS011;63529;56.320;43.990;2022-11-21T12:11:18;29.00;;;9.07;;
74972;SDS011;63529;56.320;43.990;2022-11-21T12:14:15;22.10;;;7.55;;
74972;SDS011;63529;56.320;43.990;2022-11-21T12:17:07;26.70;;;8.80;;
74972;SDS011;63529;56.320;43.990;2022-11-21T12:19:35;19.17;;;5.72;;
74972;SDS011;63529;56.320;43.990;2022-11-21T12:22:02;22.23;;;7.00;;
74972;SDS011;63529;56.320;43.990;2022-11-21T12:24:32;29.33;;;8.75;;
74972;SDS011;63529;56.320;43.990;2022-11-21T12:32:56;30.55;;;8.73;;
74972;SDS011;63529;56.320;43.990;2022-11-21T12:41:42;33.30;;;9.13;;
74972;SDS011;63529;56.320;43.990;2022-11-21T12:50:29;26.88;;;8.63;;
74972;SDS011;63529;56.320;43.990;2022-11-21T12:53:23;27.25;;;7.60;;
74972;SDS011;63529;56.320;43.990;2022-11-21T12:59:03;24.95;;;8.00;;
74972;SDS011;63529;56.320;43.990;2022-11-21T13:04:48;31.50;;;8.82;;
74972;SDS011;63529;56.320;43.990;2022-11-21T13:06:59;28.00;;;9.10;;
74972;SDS011;63529;56.320;43.990;2022-11-21T13:09:36;32.28;;;8.88;;
74972;SDS011;63529;56.320;43.990;2022-11-21T13:12:06;33.20;;;9.13;;
74972;SDS011;63529;56.320;43.990;2022-11-21T13:22:53;37.70;;;11.27;;
74972;SDS011;63529;56.320;43.990;2022-11-21T13:36:04;36.03;;;10.15;;
74972;SDS011;63529;56.320;43.990;2022-11-21T13:46:57;31.70;;;8.88;;
74972;SDS011;63529;56.320;43.990;2022-11-21T13:55:42;34.95;;;9.88;;
74972;SDS011;63529;56.320;43.990;2022-11-21T14:00:58;31.77;;;8.77;;
74972;SDS011;63529;56.320;43.990;2022-11-21T14:03:52;31.55;;;9.52;;
74972;SDS011;63529;56.320;43.990;2022-11-21T14:06:38;33.63;;;8.93;;
74972;SDS011;63529;56.320;43.990;2022-11-21T14:11:39;34.40;;;9.45;;
74972;SDS011;63529;56.320;43.990;2022-11-21T14:14:22;40.70;;;11.05;;
74972;SDS011;63529;56.320;43.990;2022-11-21T14:20:31;25.15;;;7.63;;
74972;SDS011;63529;56.320;43.990;2022-11-21T14:23:22;37.45;;;10.35;;
74972;SDS011;63529;56.320;43.990;2022-11-21T14:25:54;29.38;;;7.90;;
74972;SDS011;63529;56.320;43.990;2022-11-21T14:28:25;26.92;;;9.32;;
74972;SDS011;63529;56.320;43.990;2022-11-21T14:31:02;30.27;;;9.05;;
74972;SDS011;63529;56.320;43.990;2022-11-21T14:33:31;31.70;;;8.70;;
74972;SDS011;63529;56.320;43.990;2022-11-21T14:36:00;32.97;;;9.32;;
74972;SDS011;63529;56.320;43.990;2022-11-21T14:43:48;26.77;;;8.05;;
74972;SDS011;63529;56.320;43.990;2022-11-21T14:46:24;31.10;;;8.48;;
74972;SDS011;63529;56.320;43.990;2022-11-21T14:48:54;30.92;;;8.68;;
74972;SDS011;63529;56.320;43.990;2022-11-21T14:51:24;25.13;;;8.00;;
74972;SDS011;63529;56.320;43.990;2022-11-21T14:53:54;28.02;;;8.38;;
74972;SDS011;63529;56.320;43.990;2022-11-21T14:56:24;33.67;;;9.38;;
74972;SDS011;63529;56.320;43.990;2022-11-21T14:58:52;32.25;;;9.20;;
74972;SDS011;63529;56.320;43.990;2022-11-21T15:01:30;17.00;;;6.15;;
74972;SDS011;63529;56.320;43.990;2022-11-21T15:06:25;26.80;;;8.23;;
74972;SDS011;63529;56.320;43.990;2022-11-21T15:08:54;25.60;;;7.20;;
74972;SDS011;63529;56.320;43.990;2022-11-21T15:11:22;26.00;;;7.93;;
74972;SDS011;63529;56.320;43.990;2022-11-21T15:13:53;30.77;;;9.35;;
74972;SDS011;63529;56.320;43.990;2022-11-21T15:16:23;30.35;;;9.48;;
74972;SDS011;63529;56.320;43.990;2022-11-21T15:18:50;20.38;;;6.90;;
74972;SDS011;63529;56.320;43.990;2022-11-21T15:21:16;33.63;;;9.68;;
74972;SDS011;63529;56.320;43.990;2022-11-21T15:23:42;26.60;;;8.95;;
74972;SDS011;63529;56.320;43.990;2022-11-21T15:28:58;22.42;;;7.20;;
74972;SDS011;63529;56.320;43.990;2022-11-21T15:31:25;30.00;;;9.35;;
74972;SDS011;63529;56.320;43.990;2022-11-21T15:36:22;30.35;;;9.02;;
74972;SDS011;63529;56.320;43.990;2022-11-21T15:46:21;28.00;;;9.25;;
74972;SDS011;63529;56.320;43.990;2022-11-21T15:48:50;19.85;;;6.40;;
74972;SDS011;63529;56.320;43.990;2022-11-21T15:51:18;19.55;;;6.57;;
74972;SDS011;63529;56.320;43.990;2022-11-21T15:53:46;25.02;;;8.00;;
74972;SDS011;63529;56.320;43.990;2022-11-21T15:56:13;25.77;;;7.68;;
74972;SDS011;63529;56.320;43.990;2022-11-21T15:58:41;25.45;;;7.35;;
74972;SDS011;63529;56.320;43.990;2022-11-21T16:01:18;32.58;;;8.75;;
74972;SDS011;63529;56.320;43.990;2022-11-21T16:03:48;24.75;;;9.07;;
74972;SDS011;63529;56.320;43.990;2022-11-21T16:06:20;30.95;;;8.38;;
74972;SDS011;63529;56.320;43.990;2022-11-21T16:08:46;22.67;;;7.10;;
74972;SDS011;63529;56.320;43.990;2022-11-21T16:13:48;27.50;;;8.20;;
74972;SDS011;63529;56.320;43.990;2022-11-21T16:16:15;30.08;;;8.82;;
74972;SDS011;63529;56.320;43.990;2022-11-21T16:18:41;22.30;;;7.25;;
74972;SDS011;63529;56.320;43.990;2022-11-21T16:21:07;25.95;;;8.63;;
74972;SDS011;63529;56.320;43.990;2022-11-21T16:23:34;24.67;;;7.53;;
74972;SDS011;63529;56.320;43.990;2022-11-21T16:26:00;24.38;;;7.05;;
74972;SDS011;63529;56.320;43.990;2022-11-21T16:28:26;24.45;;;7.47;;
74972;SDS011;63529;56.320;43.990;2022-11-21T16:30:52;23.80;;;7.63;;
74972;SDS011;63529;56.320;43.990;2022-11-21T16:33:18;25.65;;;8.30;;
74972;SDS011;63529;56.320;43.990;2022-11-21T16:35:44;35.47;;;9.52;;
74972;SDS011;63529;56.320;43.990;2022-11-21T16:38:10;37.25;;;9.25;;
74972;SDS011;63529;56.320;43.990;2022-11-21T16:40:37;30.08;;;8.93;;
74972;SDS011;63529;56.320;43.990;2022-11-21T16:43:08;27.25;;;9.27;;
74972;SDS011;63529;56.320;43.990;2022-11-21T16:45:37;28.65;;;7.25;;
74972;SDS011;63529;56.320;43.990;2022-11-21T16:48:04;27.88;;;8.18;;
74972;SDS011;63529;56.320;43.990;2022-11-21T16:50:31;33.10;;;9.60;;
74972;SDS011;63529;56.320;43.990;2022-11-21T16:52:57;28.45;;;8.55;;
74972;SDS011;63529;56.320;43.990;2022-11-21T16:55:23;28.83;;;9.77;;
74972;SDS011;63529;56.320;43.990;2022-11-21T16:57:49;27.33;;;8.48;;
74972;SDS011;63529;56.320;43.990;2022-11-21T17:00:16;21.25;;;7.60;;
74972;SDS011;63529;56.320;43.990;2022-11-21T17:02:42;26.58;;;8.50;;
74972;SDS011;63529;56.320;43.990;2022-11-21T17:05:08;27.13;;;9.38;;
74972;SDS011;63529;56.320;43.990;2022-11-21T17:07:34;31.98;;;7.82;;
74972;SDS011;63529;56.320;43.990;2022-11-21T17:10:00;28.88;;;9.32;;
74972;SDS011;63529;56.320;43.990;2022-11-21T17:12:26;29.50;;;9.27;;